Time;durP1;ratioP1;P1;durP2;ratioP2;P2;SDS_P1;SDS_P2;PMS_P1;PMS_P2;Temp;Humidity;BMP_temperature;BMP_pressure;BME280_temperature;BME280_humidity;BME280_pressure;Samples;Min_cycle;Max_cycle;Signal;HPM_P1;HPM_P2
2022/04/09 00:00:21;;;;;;;11.07;5.25;;;13.30;99.90;;;;;;5038170;28;20061;-76
2022/04/09 00:02:49;;;;;;;12.20;7.15;;;13.30;99.90;;;;;;5041245;28;20125;-75
2022/04/09 00:05:17;;;;;;;13.43;6.03;;;13.20;99.90;;;;;;5059428;28;20960;-76
2022/04/09 00:07:45;;;;;;;17.38;6.07;;;13.20;99.90;;;;;;5068323;28;20141;-76
2022/04/09 00:10:13;;;;;;;20.67;6.00;;;13.10;99.90;;;;;;5038514;28;20055;-77
2022/04/09 00:12:45;;;;;;;17.38;6.47;;;13.10;99.90;;;;;;5062552;28;20056;-75
2022/04/09 00:15:13;;;;;;;16.85;7.47;;;13.00;99.90;;;;;;5059338;28;20056;-77
2022/04/09 00:17:44;;;;;;;17.00;7.05;;;13.00;99.90;;;;;;5066594;28;20044;-76
2022/04/09 00:20:18;;;;;;;19.73;8.85;;;13.00;99.90;;;;;;5060357;28;20045;-76
2022/04/09 00:22:46;;;;;;;12.32;6.00;;;13.00;99.90;;;;;;5054601;28;20051;-75
2022/04/09 00:25:21;;;;;;;16.08;6.55;;;13.10;99.90;;;;;;5057943;28;20063;-76
2022/04/09 00:27:49;;;;;;;21.17;7.47;;;13.10;99.90;;;;;;5065988;28;20497;-75
2022/04/09 00:30:17;;;;;;;18.10;6.95;;;13.10;99.90;;;;;;5059671;28;20135;-75
2022/04/09 00:32:45;;;;;;;22.42;7.75;;;13.10;99.90;;;;;;5057127;28;20079;-78
2022/04/09 00:35:12;;;;;;;18.00;7.72;;;13.20;99.90;;;;;;5057647;28;20044;-76
2022/04/09 00:37:45;;;;;;;17.73;7.28;;;13.10;99.90;;;;;;5040289;28;20135;-76
2022/04/09 00:40:14;;;;;;;22.77;8.30;;;13.10;99.90;;;;;;5060958;28;20152;-75
2022/04/09 00:42:42;;;;;;;19.48;8.18;;;13.20;99.90;;;;;;5074332;28;20040;-75
2022/04/09 00:45:11;;;;;;;20.25;7.57;;;13.20;99.90;;;;;;5068263;28;20853;-77
2022/04/09 00:47:40;;;;;;;16.90;7.00;;;13.20;99.90;;;;;;5080879;28;20067;-75
2022/04/09 00:50:10;;;;;;;21.15;7.30;;;13.20;99.90;;;;;;5032273;28;20074;-76
2022/04/09 00:52:46;;;;;;;12.63;6.55;;;13.20;99.90;;;;;;5068819;28;20048;-75
2022/04/09 00:55:18;;;;;;;17.02;6.05;;;13.20;99.90;;;;;;5039528;28;20054;-76
2022/04/09 00:57:49;;;;;;;15.80;7.93;;;13.20;99.90;;;;;;5064910;28;20041;-77
2022/04/09 01:00:18;;;;;;;12.00;6.53;;;13.30;99.90;;;;;;5054323;28;20450;-76
2022/04/09 01:02:46;;;;;;;22.42;6.95;;;13.30;99.90;;;;;;5055729;28;20106;-77
2022/04/09 01:05:14;;;;;;;13.57;5.28;;;13.30;99.90;;;;;;5071420;28;20047;-75
2022/04/09 01:07:42;;;;;;;23.35;6.63;;;13.30;99.90;;;;;;5058626;28;20053;-76
2022/04/09 01:10:10;;;;;;;13.32;6.43;;;13.30;99.90;;;;;;5054645;28;20037;-76
2022/04/09 01:12:38;;;;;;;13.35;5.72;;;13.30;99.90;;;;;;5044701;28;20066;-76
2022/04/09 01:15:07;;;;;;;17.58;7.57;;;13.30;99.90;;;;;;5052099;28;20110;-75
2022/04/09 01:17:36;;;;;;;20.20;6.35;;;13.30;99.90;;;;;;5041726;28;20143;-76
2022/04/09 01:20:20;;;;;;;24.63;6.35;;;13.40;99.90;;;;;;5055057;28;20040;-75
2022/04/09 01:22:50;;;;;;;13.75;6.53;;;13.40;99.90;;;;;;5054622;28;20058;-74
2022/04/09 01:25:19;;;;;;;20.45;7.32;;;13.40;99.90;;;;;;5054669;28;20055;-77
2022/04/09 01:27:50;;;;;;;14.40;6.78;;;13.30;99.90;;;;;;5031174;28;20040;-79
2022/04/09 01:30:19;;;;;;;14.68;5.78;;;13.30;99.90;;;;;;5054794;28;20052;-75
2022/04/09 01:32:47;;;;;;;11.60;5.55;;;13.30;99.90;;;;;;5033524;28;20045;-76
2022/04/09 01:35:14;;;;;;;14.85;6.75;;;13.20;99.90;;;;;;5047895;28;20041;-77
2022/04/09 01:37:43;;;;;;;15.25;6.50;;;13.30;99.90;;;;;;5030163;28;20177;-77
2022/04/09 01:40:11;;;;;;;12.10;6.47;;;13.30;99.90;;;;;;5037273;28;20494;-77
2022/04/09 01:42:43;;;;;;;13.85;5.95;;;13.20;99.90;;;;;;5072845;28;20491;-77
2022/04/09 01:45:11;;;;;;;15.93;5.18;;;13.30;99.90;;;;;;5066627;28;20080;-77
2022/04/09 01:47:43;;;;;;;13.82;6.22;;;13.20;99.90;;;;;;5052417;28;20064;-77
2022/04/09 01:50:11;;;;;;;10.20;5.57;;;13.20;99.90;;;;;;5035909;28;20494;-77
2022/04/09 01:52:39;;;;;;;10.27;6.05;;;13.20;99.90;;;;;;5035482;28;20123;-76
2022/04/09 01:55:07;;;;;;;16.35;7.18;;;13.30;99.90;;;;;;5035295;28;20041;-77
2022/04/09 01:57:39;;;;;;;11.48;4.88;;;13.40;99.90;;;;;;5019755;28;20076;-76
2022/04/09 02:00:10;;;;;;;13.65;5.82;;;13.40;99.90;;;;;;5066626;28;20067;-76
2022/04/09 02:02:43;;;;;;;12.70;4.35;;;13.30;99.90;;;;;;5055726;28;20048;-76
2022/04/09 02:05:12;;;;;;;12.75;5.28;;;13.40;99.90;;;;;;5055671;28;20490;-77
2022/04/09 02:07:42;;;;;;;18.52;6.03;;;13.30;99.90;;;;;;5039172;28;20079;-76
2022/04/09 02:10:11;;;;;;;19.55;7.20;;;13.30;99.90;;;;;;5039236;28;20509;-76
2022/04/09 02:12:42;;;;;;;15.75;5.80;;;13.30;99.90;;;;;;5038669;28;20048;-76
2022/04/09 02:15:13;;;;;;;13.60;4.90;;;13.20;99.90;;;;;;5038803;28;20048;-76
2022/04/09 02:17:42;;;;;;;18.40;5.15;;;13.20;99.90;;;;;;5038714;28;20521;-76
2022/04/09 02:20:13;;;;;;;10.68;5.35;;;13.20;99.90;;;;;;5038753;28;20052;-77
2022/04/09 02:22:42;;;;;;;16.17;5.35;;;13.10;99.90;;;;;;5055389;28;20051;-77
2022/04/09 02:25:13;;;;;;;10.48;4.82;;;13.00;99.90;;;;;;5055023;28;20106;-76
2022/04/09 02:27:42;;;;;;;15.35;4.90;;;12.90;99.90;;;;;;5038483;28;20056;-77
2022/04/09 02:30:11;;;;;;;9.25;5.03;;;12.90;99.90;;;;;;5071322;28;20040;-77
2022/04/09 02:32:49;;;;;;;9.70;4.90;;;13.00;99.90;;;;;;5053661;28;20558;-76
2022/04/09 02:35:22;;;;;;;22.58;6.97;;;12.90;99.90;;;;;;5054400;28;20047;-76
2022/04/09 02:37:51;;;;;;;10.43;6.70;;;13.00;99.90;;;;;;5055072;28;20063;-76
2022/04/09 02:40:20;;;;;;;14.90;7.47;;;12.90;99.90;;;;;;5054969;28;20044;-77
2022/04/09 02:42:51;;;;;;;13.57;4.55;;;12.90;99.90;;;;;;5054929;28;20458;-76
2022/04/09 02:45:20;;;;;;;11.52;5.00;;;12.80;99.90;;;;;;5055076;28;20041;-77
2022/04/09 02:47:47;;;;;;;15.25;6.13;;;12.90;99.90;;;;;;5038320;28;20052;-77
2022/04/09 02:50:19;;;;;;;15.70;5.30;;;12.90;99.90;;;;;;5071148;28;20048;-77
2022/04/09 02:52:48;;;;;;;9.02;4.65;;;13.00;99.90;;;;;;5071290;28;20036;-77
2022/04/09 02:55:18;;;;;;;8.50;4.25;;;12.90;99.90;;;;;;5054252;28;20102;-77
2022/04/09 02:57:46;;;;;;;9.40;5.35;;;12.90;99.90;;;;;;5054376;28;20434;-77
2022/04/09 03:00:17;;;;;;;14.82;4.68;;;13.00;99.90;;;;;;5069014;28;20064;-76
2022/04/09 03:02:45;;;;;;;7.13;3.70;;;13.00;99.90;;;;;;5061772;28;20418;-77
2022/04/09 03:05:32;;;;;;;6.45;3.97;;;13.00;99.90;;;;;;5051027;28;20053;-77
2022/04/09 03:07:59;;;;;;;6.43;3.80;;;13.00;99.90;;;;;;5050770;28;20103;-77
2022/04/09 03:10:28;;;;;;;7.70;3.80;;;13.00;99.90;;;;;;5034392;28;20049;-77
2022/04/09 03:12:56;;;;;;;7.25;4.03;;;13.10;99.90;;;;;;5017393;28;20049;-77
2022/04/09 03:15:26;;;;;;;11.85;3.22;;;13.20;99.90;;;;;;5016958;28;20045;-78
2022/04/09 03:17:54;;;;;;;9.20;4.30;;;13.20;99.90;;;;;;5060236;28;20055;-77
2022/04/09 03:20:25;;;;;;;7.20;3.20;;;13.30;99.90;;;;;;5053884;28;20083;-77
2022/04/09 03:22:53;;;;;;;10.95;4.10;;;13.40;99.90;;;;;;5037642;28;20456;-76
2022/04/09 03:25:36;;;;;;;7.18;3.85;;;13.40;99.90;;;;;;5055817;28;20084;-77
2022/04/09 03:28:04;;;;;;;11.75;4.40;;;13.40;99.90;;;;;;5070419;28;20044;-77
2022/04/09 03:30:35;;;;;;;8.05;4.40;;;13.40;99.90;;;;;;5053693;28;20047;-77
2022/04/09 03:33:05;;;;;;;22.67;4.85;;;13.30;99.90;;;;;;5070262;28;20807;-77
2022/04/09 03:35:35;;;;;;;10.15;5.65;;;13.30;99.90;;;;;;5054217;28;20058;-77
2022/04/09 03:38:05;;;;;;;22.83;5.78;;;13.10;99.90;;;;;;5053346;28;20052;-76
2022/04/09 03:40:40;;;;;;;14.38;6.20;;;13.00;99.90;;;;;;5052655;28;20514;-76
2022/04/09 03:43:09;;;;;;;13.50;6.95;;;12.90;99.90;;;;;;5053273;28;20164;-77
2022/04/09 03:45:38;;;;;;;17.45;7.00;;;12.90;99.90;;;;;;5037013;28;20174;-77
2022/04/09 03:48:07;;;;;;;15.68;6.30;;;12.90;99.90;;;;;;5053669;28;20571;-77
2022/04/09 03:50:39;;;;;;;17.40;6.57;;;12.90;99.90;;;;;;5037033;28;20044;-77
2022/04/09 03:53:09;;;;;;;19.92;7.85;;;13.00;99.90;;;;;;5053928;28;20051;-76
2022/04/09 03:55:38;;;;;;;18.10;8.82;;;13.00;99.90;;;;;;5052710;28;20044;-76
2022/04/09 03:58:07;;;;;;;29.20;9.25;;;13.10;99.90;;;;;;5053365;28;20055;-76
2022/04/09 04:00:35;;;;;;;24.08;7.47;;;13.20;99.90;;;;;;5051853;28;20092;-76
2022/04/09 04:03:03;;;;;;;28.63;9.75;;;13.20;99.90;;;;;;5053167;28;20045;-76
2022/04/09 04:05:32;;;;;;;18.27;7.57;;;13.20;99.90;;;;;;5053067;28;20040;-77
2022/04/09 04:08:01;;;;;;;19.75;8.43;;;13.20;99.90;;;;;;5036853;28;20049;-76
2022/04/09 04:10:28;;;;;;;17.45;6.95;;;13.20;99.90;;;;;;5052830;28;20053;-77
2022/04/09 04:13:13;;;;;;;19.42;7.80;;;13.20;99.90;;;;;;5035749;28;20040;-78
2022/04/09 04:15:42;;;;;;;21.83;8.95;;;13.20;99.90;;;;;;5063771;28;20134;-78
2022/04/09 04:18:11;;;;;;;15.63;7.78;;;13.20;99.90;;;;;;5042503;28;20549;-77
2022/04/09 04:20:43;;;;;;;25.42;9.00;;;13.20;99.90;;;;;;5058675;28;20044;-78
2022/04/09 04:23:10;;;;;;;18.65;7.95;;;13.20;99.90;;;;;;5078513;28;20048;-78
2022/04/09 04:25:38;;;;;;;34.47;8.27;;;13.10;99.90;;;;;;5038383;28;20044;-78
2022/04/09 04:28:07;;;;;;;24.10;8.18;;;13.10;99.90;;;;;;5064285;28;20482;-77
2022/04/09 04:30:35;;;;;;;13.98;7.03;;;13.10;99.90;;;;;;5042584;28;20097;-77
2022/04/09 04:33:06;;;;;;;15.18;8.35;;;13.10;99.90;;;;;;5080958;28;20036;-77
2022/04/09 04:35:40;;;;;;;18.10;6.65;;;13.20;99.90;;;;;;5053244;28;20055;-77
2022/04/09 04:38:08;;;;;;;16.77;7.13;;;13.10;99.90;;;;;;5061996;28;20101;-76
2022/04/09 04:40:38;;;;;;;37.45;7.85;;;13.20;99.90;;;;;;5063362;28;20060;-77
2022/04/09 04:43:08;;;;;;;24.00;8.55;;;13.20;99.90;;;;;;5060365;28;20064;-77
2022/04/09 04:45:36;;;;;;;14.27;7.22;;;13.20;99.90;;;;;;5071852;28;20041;-77
2022/04/09 04:48:09;;;;;;;18.08;7.78;;;13.30;99.90;;;;;;5052162;28;20044;-76
2022/04/09 04:50:39;;;;;;;9.13;5.97;;;13.30;99.90;;;;;;5036355;28;20106;-77
2022/04/09 04:53:10;;;;;;;15.68;6.95;;;13.20;99.90;;;;;;5069215;28;20045;-77
2022/04/09 04:55:44;;;;;;;16.75;6.93;;;13.30;99.90;;;;;;5069159;28;20560;-76
2022/04/09 04:58:12;;;;;;;16.85;8.00;;;13.30;99.90;;;;;;5035947;28;20102;-77
2022/04/09 05:00:50;;;;;;;26.75;9.00;;;13.40;99.90;;;;;;5051772;28;20071;-76
2022/04/09 05:03:20;;;;;;;16.13;8.63;;;13.40;99.90;;;;;;5068640;28;20055;-76
2022/04/09 05:05:58;;;;;;;23.48;8.05;;;13.40;99.90;;;;;;5053707;28;20053;-76
2022/04/09 05:08:26;;;;;;;12.32;7.40;;;13.50;99.90;;;;;;5069712;28;20056;-76
2022/04/09 05:10:54;;;;;;;16.85;6.50;;;13.60;99.90;;;;;;5050657;28;20040;-76
2022/04/09 05:13:27;;;;;;;23.30;7.65;;;13.60;99.90;;;;;;5037392;28;20075;-76
2022/04/09 05:15:55;;;;;;;9.93;6.00;;;13.70;99.90;;;;;;5053008;28;20055;-76
2022/04/09 05:18:24;;;;;;;15.30;6.90;;;13.70;99.90;;;;;;5053183;28;20506;-76
2022/04/09 05:20:52;;;;;;;12.00;6.30;;;13.90;99.90;;;;;;5052713;28;20421;-77
2022/04/09 05:23:21;;;;;;;13.07;7.25;;;14.00;99.90;;;;;;5036280;28;20102;-76
2022/04/09 05:25:50;;;;;;;18.58;6.43;;;14.10;99.90;;;;;;5052657;28;20044;-75
2022/04/09 05:28:18;;;;;;;14.05;6.45;;;14.20;99.90;;;;;;5052540;28;20051;-76
2022/04/09 05:30:52;;;;;;;11.27;5.80;;;14.30;99.90;;;;;;5036907;28;20052;-75
2022/04/09 05:33:20;;;;;;;14.90;8.07;;;14.50;99.90;;;;;;5035968;28;20052;-76
2022/04/09 05:35:56;;;;;;;15.43;6.65;;;14.60;99.90;;;;;;5037395;28;20573;-76
2022/04/09 05:38:26;;;;;;;21.98;8.27;;;14.70;99.90;;;;;;5052457;28;20095;-75
2022/04/09 05:40:55;;;;;;;16.20;6.50;;;14.80;99.90;;;;;;5019763;28;20545;-76
2022/04/09 05:43:23;;;;;;;12.25;5.63;;;14.90;99.90;;;;;;5035589;28;20051;-75
2022/04/09 05:45:57;;;;;;;12.43;4.57;;;15.00;99.90;;;;;;5053341;28;20449;-76
2022/04/09 05:48:31;;;;;;;12.10;5.18;;;15.10;99.90;;;;;;5020115;28;20390;-76
2022/04/09 05:50:59;;;;;;;11.77;5.63;;;15.20;99.90;;;;;;5051991;28;20681;-75
2022/04/09 05:53:31;;;;;;;10.57;5.72;;;15.30;99.90;;;;;;5052463;28;20152;-76
2022/04/09 05:56:01;;;;;;;9.38;5.10;;;15.50;99.90;;;;;;5052531;28;20041;-75
2022/04/09 05:58:36;;;;;;;12.02;5.15;;;15.50;99.90;;;;;;5035597;28;20102;-75
2022/04/09 06:01:06;;;;;;;11.95;4.70;;;15.50;99.90;;;;;;5056710;28;20075;-75
2022/04/09 06:03:35;;;;;;;16.05;5.10;;;15.70;99.90;;;;;;5042115;28;20044;-76
2022/04/09 06:06:05;;;;;;;14.40;5.45;;;15.80;99.90;;;;;;5075268;28;20044;-76
2022/04/09 06:08:54;;;;;;;9.43;5.00;;;15.90;99.90;;;;;;5075434;28;20177;-75
2022/04/09 06:11:34;;;;;;;14.48;4.85;;;16.00;99.90;;;;;;5058001;28;20044;-76
2022/04/09 06:14:07;;;;;;;12.77;6.22;;;16.10;99.90;;;;;;5075266;28;20565;-76
2022/04/09 06:16:38;;;;;;;8.55;4.25;;;16.30;99.90;;;;;;5058175;28;20044;-75
2022/04/09 06:19:08;;;;;;;10.75;5.38;;;16.40;99.90;;;;;;5058954;28;20120;-75
2022/04/09 06:21:36;;;;;;;9.88;5.78;;;16.40;99.90;;;;;;5058445;28;20134;-75
2022/04/09 06:24:06;;;;;;;9.02;4.60;;;16.30;99.90;;;;;;5058422;28;20051;-75
2022/04/09 06:26:34;;;;;;;9.63;5.40;;;16.40;99.90;;;;;;5058547;28;20065;-76
2022/04/09 06:29:02;;;;;;;7.55;4.82;;;16.40;99.90;;;;;;5058251;28;20531;-75
2022/04/09 06:31:30;;;;;;;9.88;4.38;;;16.50;99.90;;;;;;5041994;28;20142;-75
2022/04/09 06:33:58;;;;;;;14.02;4.93;;;16.40;99.90;;;;;;5041642;28;20113;-75
2022/04/09 06:36:26;;;;;;;8.70;4.60;;;16.50;99.90;;;;;;5041520;28;20070;-75
2022/04/09 06:38:54;;;;;;;16.48;5.65;;;16.40;99.90;;;;;;5041579;28;20079;-75
2022/04/09 06:41:30;;;;;;;12.23;4.68;;;16.50;99.90;;;;;;5043043;28;20052;-75
2022/04/09 06:44:02;;;;;;;11.70;4.07;;;16.60;99.90;;;;;;5074585;28;20430;-75
2022/04/09 06:46:33;;;;;;;9.13;4.35;;;16.70;99.90;;;;;;5056211;28;20048;-75
2022/04/09 06:49:01;;;;;;;12.00;6.07;;;16.80;99.90;;;;;;5038133;28;20048;-75
2022/04/09 06:51:48;;;;;;;15.93;4.40;;;17.00;99.90;;;;;;5024143;28;20052;-76
2022/04/09 06:54:28;;;;;;;15.30;4.57;;;17.00;99.90;;;;;;5054449;28;20068;-75
2022/04/09 06:56:56;;;;;;;10.63;4.47;;;17.20;99.90;;;;;;5021830;28;20055;-75
2022/04/09 06:59:25;;;;;;;12.13;5.38;;;17.30;99.90;;;;;;5050247;28;20068;-79
2022/04/09 07:01:53;;;;;;;10.55;3.42;;;17.50;99.90;;;;;;5034442;28;20041;-74
2022/04/09 07:04:21;;;;;;;8.40;3.63;;;17.50;99.90;;;;;;5034207;28;20099;-75
2022/04/09 07:06:49;;;;;;;13.88;4.00;;;17.60;99.90;;;;;;5051894;28;20041;-76
2022/04/09 07:09:16;;;;;;;11.27;4.88;;;17.60;99.90;;;;;;5018131;28;20052;-74
2022/04/09 07:11:44;;;;;;;11.02;3.88;;;17.70;99.90;;;;;;5034787;28;20099;-74
2022/04/09 07:14:12;;;;;;;6.55;3.70;;;17.80;99.90;;;;;;5050488;28;20845;-74
2022/04/09 07:16:40;;;;;;;10.38;5.13;;;17.70;99.90;;;;;;5050377;28;20053;-75
2022/04/09 07:19:09;;;;;;;8.85;4.13;;;17.80;99.90;;;;;;5050862;28;20080;-75
2022/04/09 07:21:36;;;;;;;11.57;3.60;;;17.90;99.90;;;;;;5017539;28;20752;-75
2022/04/09 07:24:04;;;;;;;8.02;4.57;;;17.70;99.90;;;;;;5033864;28;20135;-75
2022/04/09 07:26:32;;;;;;;8.80;4.32;;;17.80;99.90;;;;;;5050088;28;20124;-75
2022/04/09 07:29:00;;;;;;;12.52;3.83;;;17.80;99.90;;;;;;5017236;28;20141;-75
2022/04/09 07:31:27;;;;;;;15.32;4.82;;;17.80;99.90;;;;;;5066793;28;20052;-74
2022/04/09 07:33:55;;;;;;;8.00;3.25;;;17.80;99.90;;;;;;5049399;28;20065;-75
2022/04/09 07:36:23;;;;;;;11.35;4.00;;;17.90;99.90;;;;;;5051267;28;20483;-75
2022/04/09 07:38:50;;;;;;;11.43;3.95;;;18.00;99.90;;;;;;5017716;28;20164;-75
2022/04/09 07:41:18;;;;;;;12.60;3.75;;;18.00;99.90;;;;;;5050355;28;20498;-76
2022/04/09 07:43:46;;;;;;;11.07;3.72;;;18.00;99.90;;;;;;5033610;28;20112;-75
2022/04/09 07:46:14;;;;;;;7.80;2.80;;;18.10;99.90;;;;;;5017282;28;20052;-74
2022/04/09 07:48:41;;;;;;;10.20;4.22;;;18.20;99.90;;;;;;5066361;28;20049;-78
2022/04/09 07:51:09;;;;;;;10.70;4.03;;;18.20;99.90;;;;;;5036213;28;20497;-75
2022/04/09 07:53:38;;;;;;;6.28;2.78;;;18.20;99.90;;;;;;5053072;28;20032;-75
2022/04/09 07:56:05;;;;;;;17.83;5.32;;;18.30;99.90;;;;;;5069594;28;20051;-75
2022/04/09 07:58:33;;;;;;;10.38;3.33;;;18.30;99.90;;;;;;5052870;28;20062;-75
2022/04/09 08:01:01;;;;;;;10.27;4.20;;;18.30;99.90;;;;;;5040352;28;20052;-74
2022/04/09 08:03:28;;;;;;;5.82;3.17;;;18.40;99.90;;;;;;5039745;28;20414;-74
2022/04/09 08:05:56;;;;;;;9.60;5.28;;;18.40;99.90;;;;;;5073168;28;20437;-75
2022/04/09 08:08:24;;;;;;;13.50;5.20;;;18.40;99.90;;;;;;5056510;28;20044;-75
2022/04/09 08:10:51;;;;;;;11.07;5.18;;;18.60;99.90;;;;;;5056669;28;20040;-75
2022/04/09 08:13:19;;;;;;;7.10;3.60;;;18.90;99.90;;;;;;5056730;28;20051;-75
2022/04/09 08:15:47;;;;;;;9.93;3.38;;;19.00;99.90;;;;;;5072429;28;20082;-77
2022/04/09 08:18:15;;;;;;;13.52;4.85;;;18.80;99.90;;;;;;5039432;28;20400;-75
2022/04/09 08:21:04;;;;;;;12.10;4.40;;;18.90;99.90;;;;;;5042638;28;20075;-75
2022/04/09 08:23:32;;;;;;;10.85;4.15;;;18.80;99.90;;;;;;5072473;28;20048;-75
2022/04/09 08:26:01;;;;;;;19.15;4.82;;;18.90;99.90;;;;;;5055781;28;20143;-77
2022/04/09 08:28:31;;;;;;;11.20;3.88;;;19.10;99.90;;;;;;5055781;28;20458;-75
2022/04/09 08:30:59;;;;;;;12.35;5.10;;;19.00;99.90;;;;;;5072880;28;20048;-77
2022/04/09 08:33:27;;;;;;;10.15;4.72;;;18.90;99.90;;;;;;5073148;28;20036;-74
2022/04/09 08:35:55;;;;;;;11.00;4.78;;;18.90;99.90;;;;;;5053535;28;20059;-75
2022/04/09 08:38:22;;;;;;;13.60;5.75;;;19.00;99.90;;;;;;5072466;28;20054;-76
2022/04/09 08:40:50;;;;;;;11.93;5.47;;;19.10;99.90;;;;;;5039280;28;20059;-76
2022/04/09 08:43:18;;;;;;;10.52;4.53;;;19.00;99.90;;;;;;5055302;28;20498;-76
2022/04/09 08:45:46;;;;;;;14.70;4.68;;;19.00;99.90;;;;;;5056316;28;20052;-75
2022/04/09 08:48:14;;;;;;;10.23;4.80;;;19.10;99.90;;;;;;5039556;28;20375;-75
2022/04/09 08:50:45;;;;;;;11.63;4.30;;;19.30;99.90;;;;;;5090566;28;20044;-74
2022/04/09 08:53:13;;;;;;;10.05;4.70;;;19.10;99.90;;;;;;5055669;28;20039;-75
2022/04/09 08:55:40;;;;;;;9.55;4.28;;;19.10;99.90;;;;;;5056007;28;20072;-75
2022/04/09 08:58:08;;;;;;;11.35;4.30;;;19.20;99.90;;;;;;5056277;28;20393;-75
2022/04/09 09:00:35;;;;;;;11.52;5.45;;;19.30;99.90;;;;;;5089608;28;20055;-75
2022/04/09 09:03:05;;;;;;;10.70;3.67;;;19.10;99.90;;;;;;5072509;28;20051;-75
2022/04/09 09:05:41;;;;;;;11.05;5.43;;;19.10;99.90;;;;;;5072412;28;20086;-76
2022/04/09 09:08:10;;;;;;;9.65;5.68;;;19.30;99.90;;;;;;5072585;28;20078;-75
2022/04/09 09:10:40;;;;;;;14.60;4.35;;;19.30;99.90;;;;;;5072352;28;20444;-75
2022/04/09 09:13:10;;;;;;;9.23;4.75;;;19.40;99.90;;;;;;5072380;28;20074;-75
2022/04/09 09:15:45;;;;;;;23.45;5.53;;;19.30;99.90;;;;;;5073194;28;20047;-75
2022/04/09 09:18:23;;;;;;;14.15;5.10;;;19.40;99.90;;;;;;5055646;28;20516;-75
2022/04/09 09:20:57;;;;;;;9.48;4.65;;;19.30;99.90;;;;;;5039297;28;20121;-76
2022/04/09 09:23:26;;;;;;;18.83;6.72;;;19.30;99.90;;;;;;5090570;28;20047;-75
2022/04/09 09:25:55;;;;;;;8.68;5.47;;;19.40;99.90;;;;;;5070325;28;20048;-69
2022/04/09 09:28:28;;;;;;;13.95;4.65;;;19.40;99.90;;;;;;5072034;28;20127;-70
2022/04/09 09:30:57;;;;;;;10.10;4.13;;;19.20;99.90;;;;;;5072760;28;20047;-73
2022/04/09 09:33:26;;;;;;;12.65;3.90;;;19.30;99.90;;;;;;5090397;28;20040;-70
2022/04/09 09:36:05;;;;;;;9.93;4.05;;;19.40;99.90;;;;;;5055438;28;20047;-70
2022/04/09 09:38:34;;;;;;;11.48;4.90;;;19.50;99.90;;;;;;5038616;28;20056;-71
2022/04/09 09:41:03;;;;;;;9.93;3.83;;;19.50;99.90;;;;;;5039001;28;20706;-71
2022/04/09 09:43:31;;;;;;;11.73;4.50;;;19.50;99.90;;;;;;5072104;28;20036;-71
2022/04/09 09:46:00;;;;;;;20.40;7.28;;;19.50;99.90;;;;;;5072008;28;20037;-71
2022/04/09 09:48:30;;;;;;;26.50;10.50;;;19.60;99.90;;;;;;5071749;28;20093;-71
2022/04/09 09:50:59;;;;;;;12.75;6.13;;;19.60;99.90;;;;;;5090072;28;20497;-70
2022/04/09 09:53:44;;;;;;;13.20;5.28;;;19.70;99.90;;;;;;5055413;28;20043;-71
2022/04/09 09:56:12;;;;;;;8.82;3.60;;;19.70;99.90;;;;;;5089952;28;20044;-71
2022/04/09 09:58:42;;;;;;;9.52;4.32;;;19.70;99.90;;;;;;5057930;28;20143;-71
2022/04/09 10:01:16;;;;;;;11.27;5.93;;;19.50;99.90;;;;;;5076382;28;20044;-71
2022/04/09 10:03:44;;;;;;;12.43;4.32;;;19.60;99.90;;;;;;5074993;28;20044;-70
2022/04/09 10:06:12;;;;;;;12.15;3.92;;;19.70;99.90;;;;;;5058661;28;20040;-70
2022/04/09 10:08:39;;;;;;;14.57;5.72;;;19.70;99.90;;;;;;5075393;28;20032;-71
2022/04/09 10:11:08;;;;;;;15.23;4.10;;;19.80;99.90;;;;;;5058754;28;20040;-71
2022/04/09 10:13:40;;;;;;;15.85;4.78;;;19.60;99.90;;;;;;5070652;28;20048;-71
2022/04/09 10:16:10;;;;;;;11.95;4.50;;;19.60;99.90;;;;;;5072094;28;20037;-70
2022/04/09 10:18:39;;;;;;;14.70;3.70;;;19.80;99.90;;;;;;5054709;28;20052;-71
2022/04/09 10:21:09;;;;;;;13.75;4.80;;;19.80;99.90;;;;;;5054647;28;20055;-70
2022/04/09 10:23:37;;;;;;;13.45;3.78;;;19.80;99.90;;;;;;5054332;28;20044;-71
2022/04/09 10:26:06;;;;;;;11.57;4.30;;;19.80;99.90;;;;;;5054542;28;20053;-72
2022/04/09 10:28:36;;;;;;;15.93;4.07;;;19.80;99.90;;;;;;5054345;28;20045;-70
2022/04/09 10:31:28;;;;;;;9.23;3.38;;;19.80;99.90;;;;;;5051801;28;20057;-71
2022/04/09 10:33:57;;;;;;;8.63;3.33;;;19.80;99.90;;;;;;5054478;28;20040;-74
2022/04/09 10:36:46;;;;;;;18.65;5.53;;;19.90;99.90;;;;;;5054053;28;20037;-69
2022/04/09 10:39:42;;;;;;;8.05;3.13;;;20.00;99.90;;;;;;5037878;28;20067;-70
2022/04/09 10:42:30;;;;;;;11.65;5.80;;;20.10;99.90;;;;;;5038202;28;20127;-71
2022/04/09 10:44:58;;;;;;;9.48;4.72;;;20.30;99.90;;;;;;5037474;28;20052;-71
2022/04/09 10:47:26;;;;;;;16.85;4.88;;;20.40;99.90;;;;;;5053833;28;20048;-69
2022/04/09 10:50:11;;;;;;;12.93;5.60;;;20.50;99.90;;;;;;5071790;28;20047;-71
2022/04/09 10:52:39;;;;;;;14.07;4.80;;;20.50;99.90;;;;;;5021189;28;20063;-70
2022/04/09 10:55:10;;;;;;;9.52;3.72;;;20.40;99.90;;;;;;5037467;28;20095;-71
2022/04/09 10:57:43;;;;;;;12.32;3.90;;;20.30;98.80;;;;;;5037353;28;20202;-70
2022/04/09 11:00:23;;;;;;;9.77;3.55;;;20.20;98.60;;;;;;5052999;28;20114;-72
2022/04/09 11:03:10;;;;;;;5.97;2.55;;;20.30;98.80;;;;;;5036496;28;20063;-72
2022/04/09 11:05:40;;;;;;;8.13;2.75;;;20.20;97.80;;;;;;5053725;28;20045;-72
2022/04/09 11:08:20;;;;;;;15.10;4.05;;;20.20;98.20;;;;;;5037864;28;20466;-71
2022/04/09 11:10:48;;;;;;;11.57;2.72;;;20.20;98.80;;;;;;5040409;28;20083;-70
2022/04/09 11:13:28;;;;;;;8.05;2.70;;;20.30;99.00;;;;;;5057028;28;20098;-72
2022/04/09 11:15:56;;;;;;;13.70;4.07;;;20.30;98.70;;;;;;5056797;28;20041;-70
2022/04/09 11:18:24;;;;;;;6.13;2.97;;;20.30;98.70;;;;;;5073351;28;20044;-69
2022/04/09 11:20:53;;;;;;;13.43;3.20;;;20.20;99.20;;;;;;5073128;28;20576;-71
2022/04/09 11:23:20;;;;;;;8.63;4.43;;;20.20;98.60;;;;;;5073370;28;20044;-70
2022/04/09 11:25:48;;;;;;;5.85;2.72;;;20.20;98.40;;;;;;5073209;28;20051;-70
2022/04/09 11:28:18;;;;;;;6.43;3.63;;;20.10;98.70;;;;;;5073609;28;20062;-73
2022/04/09 11:30:54;;;;;;;5.50;3.28;;;20.10;97.60;;;;;;5090939;28;20040;-70
2022/04/09 11:33:22;;;;;;;10.93;4.95;;;20.10;98.90;;;;;;5039939;28;20040;-71
2022/04/09 11:35:51;;;;;;;8.10;3.55;;;20.20;98.70;;;;;;5072355;28;20052;-70
2022/04/09 11:38:22;;;;;;;8.48;2.92;;;20.20;98.90;;;;;;5072572;28;20054;-71
2022/04/09 11:40:50;;;;;;;9.05;2.90;;;20.20;98.90;;;;;;5056320;28;20442;-71
2022/04/09 11:43:19;;;;;;;7.75;4.22;;;20.20;99.20;;;;;;5056038;28;20112;-70
2022/04/09 11:45:48;;;;;;;9.13;3.67;;;20.20;99.30;;;;;;5056150;28;20521;-72
2022/04/09 11:48:25;;;;;;;7.25;3.30;;;20.30;98.80;;;;;;5091084;28;20044;-71
2022/04/09 11:50:53;;;;;;;8.55;2.80;;;20.20;98.70;;;;;;5056182;28;20070;-71
2022/04/09 11:53:24;;;;;;;8.23;3.10;;;20.10;98.40;;;;;;5073336;28;20044;-70
2022/04/09 11:56:00;;;;;;;8.27;3.25;;;20.10;98.50;;;;;;5040359;28;20105;-70
2022/04/09 11:58:35;;;;;;;11.98;4.30;;;19.90;97.20;;;;;;5073329;28;20048;-70
2022/04/09 12:01:08;;;;;;;8.35;3.42;;;20.00;97.70;;;;;;5055055;28;20059;-73
2022/04/09 12:03:39;;;;;;;6.43;3.45;;;19.90;97.80;;;;;;5056588;28;20044;-70
2022/04/09 12:06:07;;;;;;;7.57;3.67;;;20.00;98.30;;;;;;5040229;28;20193;-71
2022/04/09 12:08:37;;;;;;;9.25;2.58;;;20.00;98.50;;;;;;5056374;28;20044;-70
2022/04/09 12:11:16;;;;;;;6.30;3.15;;;19.90;97.00;;;;;;5073079;28;20043;-73
2022/04/09 12:13:45;;;;;;;10.00;3.20;;;19.90;98.00;;;;;;5073222;28;20048;-72
2022/04/09 12:16:13;;;;;;;8.00;3.08;;;20.00;97.50;;;;;;5090838;28;20043;-71
2022/04/09 12:18:41;;;;;;;10.13;4.57;;;20.00;97.80;;;;;;5056237;28;20093;-71
2022/04/09 12:21:26;;;;;;;7.15;3.05;;;20.10;97.20;;;;;;5072491;28;20040;-72
2022/04/09 12:24:06;;;;;;;8.88;2.90;;;20.10;97.50;;;;;;5072752;28;20040;-71
2022/04/09 12:26:35;;;;;;;7.10;3.92;;;20.20;97.90;;;;;;5056138;28;20094;-71
2022/04/09 12:29:12;;;;;;;8.10;3.33;;;20.30;97.20;;;;;;5056388;28;20052;-71
2022/04/09 12:31:41;;;;;;;8.02;3.22;;;20.30;97.50;;;;;;5038307;28;20052;-71
2022/04/09 12:34:10;;;;;;;10.32;3.28;;;20.30;96.70;;;;;;5056210;28;20564;-71
2022/04/09 12:36:57;;;;;;;9.25;3.88;;;20.40;97.30;;;;;;5072382;28;20048;-73
2022/04/09 12:39:26;;;;;;;8.18;3.50;;;20.40;96.90;;;;;;5072472;28;20106;-71
2022/04/09 12:41:54;;;;;;;9.13;3.38;;;20.40;97.00;;;;;;5067431;28;20133;-70
2022/04/09 12:44:25;;;;;;;6.00;2.78;;;20.50;96.90;;;;;;5036126;28;20055;-72
2022/04/09 12:46:53;;;;;;;6.10;3.00;;;20.60;95.90;;;;;;5044954;28;20044;-70
2022/04/09 12:49:33;;;;;;;10.32;3.03;;;20.70;95.40;;;;;;5043849;28;20119;-71
2022/04/09 12:52:02;;;;;;;8.48;3.22;;;20.70;94.90;;;;;;5075665;28;20044;-72
2022/04/09 12:54:32;;;;;;;7.22;3.33;;;20.80;95.50;;;;;;5066182;28;20146;-71
2022/04/09 12:57:10;;;;;;;8.15;2.90;;;20.80;95.40;;;;;;5068063;28;20051;-71